sensor_id;sensor_type;location;lat;lon;timestamp;pressure;altitude;pressure_sealevel;temperature;humidity
27980;BME280;15315;50.836;4.430;2022-12-07T00:04:51;101402.63;;;10.30;100.00
27980;BME280;15315;50.836;4.430;2022-12-07T00:14:52;101388.41;;;10.12;100.00
27980;BME280;15315;50.836;4.430;2022-12-07T00:24:52;101394.13;;;9.75;100.00
27980;BME280;15315;50.836;4.430;2022-12-07T00:34:52;101384.31;;;10.05;100.00
27980;BME280;15315;50.836;4.430;2022-12-07T00:44:53;101373.28;;;9.78;100.00
27980;BME280;15315;50.836;4.430;2022-12-07T00:54:53;101373.81;;;9.69;100.00
27980;BME280;15315;50.836;4.430;2022-12-07T01:04:53;101374.56;;;9.56;100.00
27980;BME280;15315;50.836;4.430;2022-12-07T01:14:54;101370.25;;;9.69;100.00
27980;BME280;15315;50.836;4.430;2022-12-07T01:24:54;101373.13;;;9.97;100.00
27980;BME280;15315;50.836;4.430;2022-12-07T01:34:55;101381.09;;;9.67;100.00
27980;BME280;15315;50.836;4.430;2022-12-07T01:55:15;101379.19;;;9.54;100.00
27980;BME280;15315;50.836;4.430;2022-12-07T02:05:16;101386.91;;;10.07;100.00
27980;BME280;15315;50.836;4.430;2022-12-07T02:15:18;101387.56;;;10.26;100.00
27980;BME280;15315;50.836;4.430;2022-12-07T02:35:30;101379.41;;;10.27;100.00
27980;BME280;15315;50.836;4.430;2022-12-07T02:45:35;101366.53;;;10.48;100.00
27980;BME280;15315;50.836;4.430;2022-12-07T02:55:39;101363.41;;;10.24;100.00
27980;BME280;15315;50.836;4.430;2022-12-07T03:26:09;101344.81;;;9.74;100.00
27980;BME280;15315;50.836;4.430;2022-12-07T03:36:18;101345.91;;;9.70;100.00
27980;BME280;15315;50.836;4.430;2022-12-07T03:46:29;101346.28;;;9.64;100.00
27980;BME280;15315;50.836;4.430;2022-12-07T03:56:32;101332.38;;;9.41;100.00
27980;BME280;15315;50.836;4.430;2022-12-07T04:06:33;101343.19;;;9.39;100.00
27980;BME280;15315;50.836;4.430;2022-12-07T04:16:33;101332.59;;;9.03;100.00
27980;BME280;15315;50.836;4.430;2022-12-07T04:26:33;101337.03;;;9.04;100.00
27980;BME280;15315;50.836;4.430;2022-12-07T04:36:35;101342.06;;;9.28;100.00
27980;BME280;15315;50.836;4.430;2022-12-07T04:46:35;101354.50;;;9.46;100.00
27980;BME280;15315;50.836;4.430;2022-12-07T04:56:36;101338.00;;;9.20;100.00
27980;BME280;15315;50.836;4.430;2022-12-07T05:06:36;101336.25;;;9.35;100.00
27980;BME280;15315;50.836;4.430;2022-12-07T05:16:37;101332.06;;;9.14;100.00
27980;BME280;15315;50.836;4.430;2022-12-07T05:26:38;101334.94;;;9.27;100.00
27980;BME280;15315;50.836;4.430;2022-12-07T05:36:38;101337.59;;;9.44;100.00
27980;BME280;15315;50.836;4.430;2022-12-07T05:46:38;101329.16;;;9.65;100.00
27980;BME280;15315;50.836;4.430;2022-12-07T05:56:39;101330.97;;;9.65;100.00
27980;BME280;15315;50.836;4.430;2022-12-07T06:06:39;101327.94;;;9.71;100.00
27980;BME280;15315;50.836;4.430;2022-12-07T06:16:41;101324.13;;;9.75;100.00
27980;BME280;15315;50.836;4.430;2022-12-07T06:26:42;101329.25;;;9.79;100.00
27980;BME280;15315;50.836;4.430;2022-12-07T06:36:42;101320.91;;;9.53;100.00
27980;BME280;15315;50.836;4.430;2022-12-07T06:46:43;101328.44;;;9.62;100.00
27980;BME280;15315;50.836;4.430;2022-12-07T06:56:43;101334.53;;;9.81;100.00
27980;BME280;15315;50.836;4.430;2022-12-07T07:06:44;101334.53;;;9.65;100.00
27980;BME280;15315;50.836;4.430;2022-12-07T07:16:44;101337.59;;;9.44;100.00
27980;BME280;15315;50.836;4.430;2022-12-07T07:26:45;101338.72;;;9.71;100.00
27980;BME280;15315;50.836;4.430;2022-12-07T07:36:45;101347.03;;;9.35;100.00
27980;BME280;15315;50.836;4.430;2022-12-07T07:46:46;101349.56;;;9.85;100.00
27980;BME280;15315;50.836;4.430;2022-12-07T07:56:46;101355.66;;;9.73;100.00
27980;BME280;15315;50.836;4.430;2022-12-07T08:06:46;101348.19;;;9.78;100.00
27980;BME280;15315;50.836;4.430;2022-12-07T08:16:47;101358.28;;;9.74;100.00
27980;BME280;15315;50.836;4.430;2022-12-07T08:26:47;101359.97;;;9.60;100.00
27980;BME280;15315;50.836;4.430;2022-12-07T08:36:48;101367.28;;;9.89;100.00
27980;BME280;15315;50.836;4.430;2022-12-07T08:46:56;101376.34;;;9.24;100.00
27980;BME280;15315;50.836;4.430;2022-12-07T08:56:58;101375.53;;;9.86;100.00
27980;BME280;15315;50.836;4.430;2022-12-07T09:06:59;101373.19;;;10.57;100.00
27980;BME280;15315;50.836;4.430;2022-12-07T09:17:07;101365.81;;;9.99;100.00
27980;BME280;15315;50.836;4.430;2022-12-07T09:27:08;101362.38;;;10.42;100.00
27980;BME280;15315;50.836;4.430;2022-12-07T09:37:09;101364.38;;;10.39;100.00
27980;BME280;15315;50.836;4.430;2022-12-07T09:47:10;101353.53;;;10.84;100.00
27980;BME280;15315;50.836;4.430;2022-12-07T09:57:11;101351.91;;;10.52;100.00
27980;BME280;15315;50.836;4.430;2022-12-07T10:07:12;101339.88;;;11.01;100.00
27980;BME280;15315;50.836;4.430;2022-12-07T10:17:30;101345.81;;;11.21;100.00
27980;BME280;15315;50.836;4.430;2022-12-07T10:27:32;101344.69;;;10.96;100.00
27980;BME280;15315;50.836;4.430;2022-12-07T10:37:40;101334.72;;;10.83;100.00
27980;BME280;15315;50.836;4.430;2022-12-07T10:47:46;101305.94;;;10.83;100.00
27980;BME280;15315;50.836;4.430;2022-12-07T11:18:55;101286.72;;;10.00;100.00
27980;BME280;15315;50.836;4.430;2022-12-07T11:29:09;101270.16;;;10.37;100.00
27980;BME280;15315;50.836;4.430;2022-12-07T11:49:29;101263.25;;;9.57;100.00
27980;BME280;15315;50.836;4.430;2022-12-07T11:59:40;101241.56;;;11.05;100.00
27980;BME280;15315;50.836;4.430;2022-12-07T12:09:54;101222.91;;;10.46;100.00
27980;BME280;15315;50.836;4.430;2022-12-07T12:30:32;101207.66;;;10.87;100.00
27980;BME280;15315;50.836;4.430;2022-12-07T12:40:42;101202.22;;;11.16;100.00
27980;BME280;15315;50.836;4.430;2022-12-07T12:50:42;101193.81;;;10.79;100.00
27980;BME280;15315;50.836;4.430;2022-12-07T13:00:44;101186.56;;;11.35;100.00
27980;BME280;15315;50.836;4.430;2022-12-07T13:10:46;101180.31;;;12.00;100.00
27980;BME280;15315;50.836;4.430;2022-12-07T13:31:28;101152.34;;;12.01;99.67
27980;BME280;15315;50.836;4.430;2022-12-07T13:41:30;101147.03;;;10.66;99.74
27980;BME280;15315;50.836;4.430;2022-12-07T13:51:34;101132.81;;;11.44;96.96
27980;BME280;15315;50.836;4.430;2022-12-07T14:01:36;101115.06;;;11.54;97.29
27980;BME280;15315;50.836;4.430;2022-12-07T14:11:37;101120.94;;;10.53;100.00
27980;BME280;15315;50.836;4.430;2022-12-07T14:21:37;101129.41;;;9.74;100.00
27980;BME280;15315;50.836;4.430;2022-12-07T14:31:38;101127.44;;;9.33;100.00
27980;BME280;15315;50.836;4.430;2022-12-07T14:41:38;101110.34;;;9.34;100.00
27980;BME280;15315;50.836;4.430;2022-12-07T14:51:50;101107.66;;;10.49;100.00
27980;BME280;15315;50.836;4.430;2022-12-07T15:01:51;101101.00;;;10.13;100.00
27980;BME280;15315;50.836;4.430;2022-12-07T15:11:51;101094.47;;;10.45;100.00
27980;BME280;15315;50.836;4.430;2022-12-07T15:21:52;101089.25;;;10.00;100.00
27980;BME280;15315;50.836;4.430;2022-12-07T15:31:53;101083.31;;;10.37;100.00
27980;BME280;15315;50.836;4.430;2022-12-07T15:41:53;101077.69;;;10.12;100.00
27980;BME280;15315;50.836;4.430;2022-12-07T15:51:54;101084.06;;;10.25;100.00
27980;BME280;15315;50.836;4.430;2022-12-07T16:01:55;101072.66;;;9.77;100.00
27980;BME280;15315;50.836;4.430;2022-12-07T16:11:55;101071.03;;;10.60;100.00
27980;BME280;15315;50.836;4.430;2022-12-07T16:21:56;101074.56;;;10.74;100.00
27980;BME280;15315;50.836;4.430;2022-12-07T16:31:56;101054.72;;;10.89;100.00
27980;BME280;15315;50.836;4.430;2022-12-07T16:41:57;101046.09;;;10.97;100.00
27980;BME280;15315;50.836;4.430;2022-12-07T16:51:57;101047.56;;;11.15;100.00
27980;BME280;15315;50.836;4.430;2022-12-07T17:01:57;101048.97;;;11.21;100.00
27980;BME280;15315;50.836;4.430;2022-12-07T17:11:58;101035.41;;;10.95;100.00
27980;BME280;15315;50.836;4.430;2022-12-07T17:21:58;101037.91;;;10.03;100.00
27980;BME280;15315;50.836;4.430;2022-12-07T17:31:59;101034.13;;;10.19;100.00
27980;BME280;15315;50.836;4.430;2022-12-07T17:41:59;101022.72;;;10.28;100.00
27980;BME280;15315;50.836;4.430;2022-12-07T17:52:18;101005.06;;;9.96;100.00
27980;BME280;15315;50.836;4.430;2022-12-07T18:02:37;100999.00;;;10.62;100.00
27980;BME280;15315;50.836;4.430;2022-12-07T18:12:38;100989.47;;;10.43;100.00
27980;BME280;15315;50.836;4.430;2022-12-07T18:22:41;100992.09;;;10.58;100.00
27980;BME280;15315;50.836;4.430;2022-12-07T18:32:41;100994.25;;;10.53;100.00
27980;BME280;15315;50.836;4.430;2022-12-07T18:42:42;100987.63;;;10.16;100.00
27980;BME280;15315;50.836;4.430;2022-12-07T18:52:42;100967.91;;;10.43;100.00
27980;BME280;15315;50.836;4.430;2022-12-07T19:02:42;100976.72;;;10.05;100.00
27980;BME280;15315;50.836;4.430;2022-12-07T19:12:44;100969.22;;;9.81;100.00
27980;BME280;15315;50.836;4.430;2022-12-07T19:22:45;100973.91;;;9.36;100.00
27980;BME280;15315;50.836;4.430;2022-12-07T19:32:45;100982.41;;;8.53;100.00
27980;BME280;15315;50.836;4.430;2022-12-07T19:42:45;100981.75;;;8.34;100.00
27980;BME280;15315;50.836;4.430;2022-12-07T19:52:46;100948.81;;;8.46;100.00
27980;BME280;15315;50.836;4.430;2022-12-07T20:02:50;100943.88;;;8.84;100.00
27980;BME280;15315;50.836;4.430;2022-12-07T20:12:50;100953.03;;;8.50;100.00
27980;BME280;15315;50.836;4.430;2022-12-07T20:23:09;100945.19;;;8.00;100.00
27980;BME280;15315;50.836;4.430;2022-12-07T20:33:09;100932.81;;;8.13;100.00
27980;BME280;15315;50.836;4.430;2022-12-07T20:43:10;100922.66;;;7.87;100.00
27980;BME280;15315;50.836;4.430;2022-12-07T20:53:10;100913.72;;;8.33;100.00
27980;BME280;15315;50.836;4.430;2022-12-07T21:03:10;100902.97;;;8.33;100.00
27980;BME280;15315;50.836;4.430;2022-12-07T21:13:11;100902.16;;;8.47;100.00
27980;BME280;15315;50.836;4.430;2022-12-07T21:23:11;100905.41;;;8.38;100.00
27980;BME280;15315;50.836;4.430;2022-12-07T21:33:12;100882.97;;;8.69;100.00
27980;BME280;15315;50.836;4.430;2022-12-07T21:43:12;100870.78;;;8.47;100.00
27980;BME280;15315;50.836;4.430;2022-12-07T21:53:13;100870.19;;;8.13;100.00
27980;BME280;15315;50.836;4.430;2022-12-07T22:03:13;100873.34;;;8.35;100.00
27980;BME280;15315;50.836;4.430;2022-12-07T22:13:14;100866.44;;;8.15;100.00
27980;BME280;15315;50.836;4.430;2022-12-07T22:23:14;100865.25;;;8.05;100.00
27980;BME280;15315;50.836;4.430;2022-12-07T22:33:15;100832.53;;;8.44;100.00
27980;BME280;15315;50.836;4.430;2022-12-07T22:43:15;100829.16;;;8.25;100.00
27980;BME280;15315;50.836;4.430;2022-12-07T22:53:15;100823.09;;;8.95;100.00
27980;BME280;15315;50.836;4.430;2022-12-07T23:03:16;100809.34;;;8.85;100.00
27980;BME280;15315;50.836;4.430;2022-12-07T23:13:17;100796.09;;;8.68;100.00
27980;BME280;15315;50.836;4.430;2022-12-07T23:23:34;100790.16;;;8.77;100.00
27980;BME280;15315;50.836;4.430;2022-12-07T23:33:35;100778.72;;;8.74;100.00
27980;BME280;15315;50.836;4.430;2022-12-07T23:43:36;100769.81;;;9.01;100.00
27980;BME280;15315;50.836;4.430;2022-12-07T23:53:39;100764.34;;;8.89;100.00
